Time,TemperatureF,DewpointF,PressureIn,WindDirection,WindDirectionDegrees,WindSpeedMPH,WindSpeedGustMPH,Humidity,HourlyPrecipIn,Conditions,Clouds,dailyrainin,SoftwareType,DateUTC
2013-02-01 00:01:00,34.3,16.1,30.42,NNW,338,0.0,0.0,47,0.00,,,0.00,Wunderground v.1.15,2013-02-01 07:01:00,
2013-02-01 00:07:00,34.0,15.9,30.43,NNW,338,0.0,0.0,47,0.00,,,0.00,Wunderground v.1.15,2013-02-01 07:07:00,
2013-02-01 00:13:00,33.6,16.0,30.43,NNW,338,0.0,0.0,48,0.00,,,0.00,Wunderground v.1.15,2013-02-01 07:13:00,
2013-02-01 00:19:00,33.2,16.1,30.43,NNW,338,0.0,0.0,49,0.00,,,0.00,Wunderground v.1.15,2013-02-01 07:19:00,
2013-02-01 00:25:00,32.9,15.8,30.43,NNW,338,0.0,0.0,49,0.00,,,0.00,Wunderground v.1.15,2013-02-01 07:25:00,
2013-02-01 00:30:00,32.7,15.6,30.43,NNW,338,0.0,0.0,49,0.00,,,0.00,Wunderground v.1.15,2013-02-01 07:30:00,
2013-02-01 00:36:00,32.5,15.9,30.44,NNW,338,0.0,0.0,50,0.00,,,0.00,Wunderground v.1.15,2013-02-01 07:36:00,
2013-02-01 00:42:00,32.3,16.2,30.44,NNW,338,0.0,0.0,51,0.00,,,0.00,Wunderground v.1.15,2013-02-01 07:42:00,
2013-02-01 00:48:00,32.0,16.3,30.44,NNW,338,0.0,0.0,52,0.00,,,0.00,Wunderground v.1.15,2013-02-01 07:48:00,
2013-02-01 00:53:00,31.7,16.5,30.45,NNW,338,0.0,0.0,53,0.00,,,0.00,Wunderground v.1.15,2013-02-01 07:53:00,
2013-02-01 00:59:00,31.5,17.2,30.45,NNW,338,0.0,0.0,55,0.00,,,0.00,Wunderground v.1.15,2013-02-01 07:59:00,
2013-02-01 01:05:00,31.1,15.1,30.45,NNW,338,0.0,0.0,51,0.00,,,0.00,Wunderground v.1.15,2013-02-01 08:05:00,
2013-02-01 01:11:00,30.4,15.3,30.45,NNW,338,0.0,0.0,53,0.00,,,0.00,Wunderground v.1.15,2013-02-01 08:11:00,
2013-02-01 01:17:00,29.9,15.3,30.45,NNW,338,0.0,0.0,54,0.00,,,0.00,Wunderground v.1.15,2013-02-01 08:17:00,
2013-02-01 01:22:00,29.5,14.9,30.44,NNW,338,0.0,0.0,54,0.00,,,0.00,Wunderground v.1.15,2013-02-01 08:22:00,
2013-02-01 01:28:00,29.2,15.4,30.44,NNW,338,0.0,0.0,56,0.00,,,0.00,Wunderground v.1.15,2013-02-01 08:28:00,
2013-02-01 01:34:00,29.0,15.7,30.45,NNW,338,0.0,0.0,57,0.00,,,0.00,Wunderground v.1.15,2013-02-01 08:34:00,
2013-02-01 01:40:00,28.9,15.6,30.45,NNW,338,0.0,0.0,57,0.00,,,0.00,Wunderground v.1.15,2013-02-01 08:40:00,
2013-02-01 01:45:00,28.8,15.9,30.45,NNW,338,0.0,0.0,58,0.00,,,0.00,Wunderground v.1.15,2013-02-01 08:45:00,
2013-02-01 01:51:00,28.7,16.6,30.45,NNW,338,0.0,0.0,60,0.00,,,0.00,Wunderground v.1.15,2013-02-01 08:51:00,
2013-02-01 01:57:00,28.4,16.3,30.45,NNW,338,0.0,0.0,60,0.00,,,0.00,Wunderground v.1.15,2013-02-01 08:57:00,
2013-02-01 02:03:00,28.3,17.3,30.45,NNW,338,0.0,0.0,63,0.00,,,0.00,Wunderground v.1.15,2013-02-01 09:03:00,
2013-02-01 02:08:00,28.3,17.7,30.45,NNW,338,0.0,0.0,64,0.00,,,0.00,Wunderground v.1.15,2013-02-01 09:08:00,
2013-02-01 02:14:00,27.8,15.3,30.44,NNW,338,0.0,0.0,59,0.00,,,0.00,Wunderground v.1.15,2013-02-01 09:14:00,
2013-02-01 02:20:00,27.2,14.4,30.45,NNW,338,0.0,0.0,58,0.00,,,0.00,Wunderground v.1.15,2013-02-01 09:20:00,
2013-02-01 02:26:00,26.9,13.7,30.45,NNW,338,0.0,0.0,57,0.00,,,0.00,Wunderground v.1.15,2013-02-01 09:26:00,
2013-02-01 02:31:00,26.7,13.9,30.45,NNW,338,0.0,0.0,58,0.00,,,0.00,Wunderground v.1.15,2013-02-01 09:31:00,
2013-02-01 02:37:00,26.7,15.0,30.44,NNW,338,0.0,0.0,61,0.00,,,0.00,Wunderground v.1.15,2013-02-01 09:37:00,
2013-02-01 02:43:00,26.8,15.9,30.44,NNW,338,0.0,0.0,63,0.00,,,0.00,Wunderground v.1.15,2013-02-01 09:43:00,
2013-02-01 02:49:00,26.8,15.9,30.43,NNW,338,0.0,0.0,63,0.00,,,0.00,Wunderground v.1.15,2013-02-01 09:49:00,
2013-02-01 02:54:00,26.7,15.8,30.43,NNW,338,0.0,0.0,63,0.00,,,0.00,Wunderground v.1.15,2013-02-01 09:54:00,
2013-02-01 03:00:00,26.6,16.1,30.43,NNW,338,0.0,0.0,64,0.00,,,0.00,Wunderground v.1.15,2013-02-01 10:00:00,
2013-02-01 03:06:00,26.7,15.8,30.43,NNW,338,0.0,0.0,63,0.00,,,0.00,Wunderground v.1.15,2013-02-01 10:06:00,
2013-02-01 03:12:00,26.7,16.1,30.43,NNW,338,0.0,0.0,64,0.00,,,0.00,Wunderground v.1.15,2013-02-01 10:12:00,
2013-02-01 03:17:00,26.6,15.3,30.43,NNW,338,0.0,0.0,62,0.00,,,0.00,Wunderground v.1.15,2013-02-01 10:17:00,
2013-02-01 03:23:00,26.3,15.0,30.42,NNW,338,0.0,0.0,62,0.00,,,0.00,Wunderground v.1.15,2013-02-01 10:23:00,
2013-02-01 03:29:00,26.0,14.8,30.42,NNW,338,0.0,0.0,62,0.00,,,0.00,Wunderground v.1.15,2013-02-01 10:29:00,
2013-02-01 03:35:00,26.1,15.6,30.42,NNW,338,0.0,0.0,64,0.00,,,0.00,Wunderground v.1.15,2013-02-01 10:35:00,
2013-02-01 03:40:00,26.2,15.7,30.42,NNW,338,0.0,0.0,64,0.00,,,0.00,Wunderground v.1.15,2013-02-01 10:40:00,
2013-02-01 03:46:00,26.2,16.0,30.43,NNW,338,0.0,0.0,65,0.00,,,0.00,Wunderground v.1.15,2013-02-01 10:46:00,
2013-02-01 03:52:00,26.4,16.2,30.43,NNW,338,0.0,0.0,65,0.00,,,0.00,Wunderground v.1.15,2013-02-01 10:52:00,
2013-02-01 03:58:00,26.5,16.3,30.43,NNW,338,0.0,0.0,65,0.00,,,0.00,Wunderground v.1.15,2013-02-01 10:58:00,
2013-02-01 04:03:00,26.6,16.1,30.43,NNW,338,0.0,0.0,64,0.00,,,0.00,Wunderground v.1.15,2013-02-01 11:03:00,
2013-02-01 04:09:00,26.7,16.1,30.43,NNW,338,0.0,0.0,64,0.00,,,0.00,Wunderground v.1.15,2013-02-01 11:09:00,
2013-02-01 04:15:00,26.9,15.6,30.43,NNW,338,0.0,0.0,62,0.00,,,0.00,Wunderground v.1.15,2013-02-01 11:15:00,
2013-02-01 04:20:00,26.7,15.8,30.43,NNW,338,0.0,0.0,63,0.00,,,0.00,Wunderground v.1.15,2013-02-01 11:20:00,
2013-02-01 04:26:00,26.7,15.8,30.42,NNW,338,0.0,0.0,63,0.00,,,0.00,Wunderground v.1.15,2013-02-01 11:26:00,
2013-02-01 04:32:00,26.9,15.6,30.42,NNW,338,0.0,0.0,62,0.00,,,0.00,Wunderground v.1.15,2013-02-01 11:32:00,
2013-02-01 04:38:00,26.9,15.6,30.42,NNW,338,0.0,0.0,62,0.00,,,0.00,Wunderground v.1.15,2013-02-01 11:38:00,
2013-02-01 04:43:00,26.9,15.6,30.42,NNW,338,0.0,0.0,62,0.00,,,0.00,Wunderground v.1.15,2013-02-01 11:43:00,
2013-02-01 04:49:00,26.7,14.7,30.42,NNW,338,0.0,0.0,60,0.00,,,0.00,Wunderground v.1.15,2013-02-01 11:49:00,
2013-02-01 04:55:00,26.3,14.7,30.42,NNW,338,0.0,0.0,61,0.00,,,0.00,Wunderground v.1.15,2013-02-01 11:55:00,
2013-02-01 05:01:00,26.2,14.9,30.42,NNW,338,0.0,0.0,62,0.00,,,0.00,Wunderground v.1.15,2013-02-01 12:01:00,
2013-02-01 05:06:00,26.4,15.1,30.41,NNW,338,0.0,0.0,62,0.00,,,0.00,Wunderground v.1.15,2013-02-01 12:06:00,
2013-02-01 05:12:00,26.8,15.1,30.41,NNW,338,0.0,0.0,61,0.00,,,0.00,Wunderground v.1.15,2013-02-01 12:12:00,
2013-02-01 05:18:00,27.2,15.1,30.41,NNW,338,0.0,0.0,60,0.00,,,0.00,Wunderground v.1.15,2013-02-01 12:18:00,
2013-02-01 05:24:00,27.4,14.9,30.42,NNW,338,0.0,0.0,59,0.00,,,0.00,Wunderground v.1.15,2013-02-01 12:24:00,
2013-02-01 05:30:00,27.4,14.9,30.42,NNW,338,0.0,0.0,59,0.00,,,0.00,Wunderground v.1.15,2013-02-01 12:30:00,
2013-02-01 05:35:00,27.6,14.7,30.42,NNW,338,0.0,0.0,58,0.00,,,0.00,Wunderground v.1.15,2013-02-01 12:35:00,
2013-02-01 05:41:00,27.8,14.9,30.42,NNW,338,0.0,0.0,58,0.00,,,0.00,Wunderground v.1.15,2013-02-01 12:41:00,
2013-02-01 05:47:00,27.8,14.9,30.42,NNW,338,0.0,0.0,58,0.00,,,0.00,Wunderground v.1.15,2013-02-01 12:47:00,
2013-02-01 05:53:00,27.8,14.9,30.42,NNW,338,0.0,0.0,58,0.00,,,0.00,Wunderground v.1.15,2013-02-01 12:53:00,
2013-02-01 05:59:00,27.5,14.2,30.42,NNW,338,0.0,0.0,57,0.00,,,0.00,Wunderground v.1.15,2013-02-01 12:59:00,
2013-02-01 06:04:00,26.7,13.1,30.42,NNW,338,0.0,0.0,56,0.00,,,0.00,Wunderground v.1.15,2013-02-01 13:04:00,
2013-02-01 06:10:00,25.9,13.1,30.42,NNW,338,0.0,0.0,58,0.00,,,0.00,Wunderground v.1.15,2013-02-01 13:10:00,
2013-02-01 06:16:00,25.1,13.2,30.42,NNW,338,0.0,0.0,60,0.00,,,0.00,Wunderground v.1.15,2013-02-01 13:16:00,
2013-02-01 06:21:00,24.7,13.5,30.43,NNW,338,0.0,0.0,62,0.00,,,0.00,Wunderground v.1.15,2013-02-01 13:21:00,
2013-02-01 06:26:00,24.9,13.7,30.43,NNW,338,0.0,0.0,62,0.00,,,0.00,Wunderground v.1.15,2013-02-01 13:26:00,
2013-02-01 06:32:00,25.4,13.8,30.42,NNW,338,0.0,0.0,61,0.00,,,0.00,Wunderground v.1.15,2013-02-01 13:32:00,
2013-02-01 06:38:00,25.6,13.6,30.42,NNW,338,0.0,0.0,60,0.00,,,0.00,Wunderground v.1.15,2013-02-01 13:38:00,
2013-02-01 06:43:00,25.6,13.2,30.43,NNW,338,0.0,0.0,59,0.00,,,0.00,Wunderground v.1.15,2013-02-01 13:43:00,
2013-02-01 06:49:00,25.4,13.4,30.43,NNW,338,0.0,0.0,60,0.00,,,0.00,Wunderground v.1.15,2013-02-01 13:49:00,
2013-02-01 06:55:00,25.4,13.8,30.44,NNW,338,0.0,0.0,61,0.00,,,0.00,Wunderground v.1.15,2013-02-01 13:55:00,
2013-02-01 07:00:00,25.3,13.7,30.44,NNW,338,0.0,0.0,61,0.00,,,0.00,Wunderground v.1.15,2013-02-01 14:00:00,
2013-02-01 07:06:00,25.2,13.6,30.43,NNW,338,0.0,0.0,61,0.00,,,0.00,Wunderground v.1.15,2013-02-01 14:06:00,
2013-02-01 07:11:00,25.2,14.0,30.44,NNW,338,0.0,0.0,62,0.00,,,0.00,Wunderground v.1.15,2013-02-01 14:11:00,
2013-02-01 07:17:00,25.2,13.6,30.44,NNW,338,0.0,0.0,61,0.00,,,0.00,Wunderground v.1.15,2013-02-01 14:17:00,
2013-02-01 07:23:00,25.3,13.7,30.44,NNW,338,0.0,0.0,61,0.00,,,0.00,Wunderground v.1.15,2013-02-01 14:23:00,
2013-02-01 07:28:00,25.8,14.6,30.44,NNW,338,0.0,0.0,62,0.00,,,0.00,Wunderground v.1.15,2013-02-01 14:28:00,
2013-02-01 07:34:00,26.7,15.0,30.44,NNW,338,0.0,0.0,61,0.00,,,0.00,Wunderground v.1.15,2013-02-01 14:34:00,
2013-02-01 07:40:00,27.6,15.1,30.45,NNW,338,0.0,0.0,59,0.00,,,0.00,Wunderground v.1.15,2013-02-01 14:40:00,
2013-02-01 07:46:00,28.5,15.6,30.45,NNW,338,0.0,0.0,58,0.00,,,0.00,Wunderground v.1.15,2013-02-01 14:46:00,
2013-02-01 07:51:00,29.2,15.4,30.45,NNW,338,0.0,0.0,56,0.00,,,0.00,Wunderground v.1.15,2013-02-01 14:51:00,
2013-02-01 07:57:00,30.2,16.0,30.45,NNW,338,0.0,0.0,55,0.00,,,0.00,Wunderground v.1.15,2013-02-01 14:57:00,
2013-02-01 08:03:00,31.2,16.0,30.45,NNW,338,0.0,0.0,53,0.00,,,0.00,Wunderground v.1.15,2013-02-01 15:03:00,
2013-02-01 08:09:00,32.1,16.4,30.45,NNW,338,0.0,0.0,52,0.00,,,0.00,Wunderground v.1.15,2013-02-01 15:09:00,
2013-02-01 08:15:00,32.8,17.1,30.46,NNW,338,0.0,0.0,52,0.00,,,0.00,Wunderground v.1.15,2013-02-01 15:15:00,
2013-02-01 08:20:00,33.0,17.3,30.46,NNW,338,0.0,0.0,52,0.00,,,0.00,Wunderground v.1.15,2013-02-01 15:20:00,
2013-02-01 08:26:00,33.5,17.7,30.45,NNW,338,0.0,0.0,52,0.00,,,0.00,Wunderground v.1.15,2013-02-01 15:26:00,
2013-02-01 08:32:00,34.3,18.5,30.46,NNW,338,0.0,0.0,52,0.00,,,0.00,Wunderground v.1.15,2013-02-01 15:32:00,
2013-02-01 08:38:00,35.3,18.0,30.46,NNW,338,0.0,0.0,49,0.00,,,0.00,Wunderground v.1.15,2013-02-01 15:38:00,
2013-02-01 08:44:00,36.2,18.9,30.45,NNW,338,0.0,0.0,49,0.00,,,0.00,Wunderground v.1.15,2013-02-01 15:44:00,
2013-02-01 08:49:00,37.0,18.6,30.46,NNW,337,0.0,0.0,47,0.00,,,0.00,Wunderground v.1.15,2013-02-01 15:49:00,
2013-02-01 08:55:00,37.8,18.3,30.46,NNW,332,0.0,0.0,45,0.00,,,0.00,Wunderground v.1.15,2013-02-01 15:55:00,
2013-02-01 09:01:00,38.6,19.1,30.46,NNW,330,0.0,0.0,45,0.00,,,0.00,Wunderground v.1.15,2013-02-01 16:01:00,
2013-02-01 09:07:00,39.3,19.2,30.46,NNW,330,0.0,0.0,44,0.00,,,0.00,Wunderground v.1.15,2013-02-01 16:07:00,
2013-02-01 09:12:00,39.8,19.1,30.46,NNW,330,0.0,0.0,43,0.00,,,0.00,Wunderground v.1.15,2013-02-01 16:12:00,
2013-02-01 09:18:00,40.6,19.3,30.47,NNW,330,0.0,0.0,42,0.00,,,0.00,Wunderground v.1.15,2013-02-01 16:18:00,
2013-02-01 09:24:00,41.2,19.2,30.46,NNW,330,0.0,0.0,41,0.00,,,0.00,Wunderground v.1.15,2013-02-01 16:24:00,
2013-02-01 09:29:00,41.6,19.0,30.46,NNW,330,0.0,0.0,40,0.00,,,0.00,Wunderground v.1.15,2013-02-01 16:29:00,
2013-02-01 09:35:00,42.3,19.7,30.46,NNW,330,0.0,0.0,40,0.00,,,0.00,Wunderground v.1.15,2013-02-01 16:35:00,
2013-02-01 09:41:00,43.1,19.2,30.47,NNW,330,0.0,0.0,38,0.00,,,0.00,Wunderground v.1.15,2013-02-01 16:41:00,
2013-02-01 09:47:00,44.3,20.3,30.47,NNW,330,0.0,0.0,38,0.00,,,0.00,Wunderground v.1.15,2013-02-01 16:47:00,
2013-02-01 09:53:00,44.8,20.1,30.46,NNW,330,0.0,0.0,37,0.00,,,0.00,Wunderground v.1.15,2013-02-01 16:53:00,
2013-02-01 09:58:00,45.3,19.9,30.46,NNW,330,0.0,0.0,36,0.00,,,0.00,Wunderground v.1.15,2013-02-01 16:58:00,
2013-02-01 10:04:00,46.5,20.3,30.46,NNE,32,0.0,1.0,35,0.00,,,0.00,Wunderground v.1.15,2013-02-01 17:04:00,
2013-02-01 10:10:00,46.8,19.9,30.46,NNE,32,0.0,0.0,34,0.00,,,0.00,Wunderground v.1.15,2013-02-01 17:10:00,
2013-02-01 10:15:00,47.2,20.2,30.46,NNE,32,0.0,0.0,34,0.00,,,0.00,Wunderground v.1.15,2013-02-01 17:15:00,
2013-02-01 10:21:00,47.4,19.7,30.45,NNE,32,0.0,0.0,33,0.00,,,0.00,Wunderground v.1.15,2013-02-01 17:21:00,
2013-02-01 10:27:00,47.9,20.1,30.45,NE,34,0.0,1.0,33,0.00,,,0.00,Wunderground v.1.15,2013-02-01 17:27:00,
2013-02-01 10:33:00,48.3,20.5,30.45,NE,44,0.0,1.0,33,0.00,,,0.00,Wunderground v.1.15,2013-02-01 17:33:00,
2013-02-01 10:38:00,48.7,20.1,30.45,NE,53,0.0,2.0,32,0.00,,,0.00,Wunderground v.1.15,2013-02-01 17:38:00,
2013-02-01 10:44:00,49.1,20.5,30.45,ENE,62,0.0,0.0,32,0.00,,,0.00,Wunderground v.1.15,2013-02-01 17:44:00,
2013-02-01 10:50:00,49.6,20.2,30.45,East,84,0.0,1.0,31,0.00,,,0.00,Wunderground v.1.15,2013-02-01 17:50:00,
2013-02-01 10:56:00,50.2,20.7,30.44,East,93,0.0,3.0,31,0.00,,,0.00,Wunderground v.1.15,2013-02-01 17:56:00,
2013-02-01 11:01:00,51.2,20.8,30.44,East,92,0.0,0.0,30,0.00,,,0.00,Wunderground v.1.15,2013-02-01 18:01:00,
2013-02-01 11:07:00,51.8,20.5,30.44,East,92,0.0,0.0,29,0.00,,,0.00,Wunderground v.1.15,2013-02-01 18:07:00,
2013-02-01 11:13:00,52.5,20.3,30.44,East,92,0.0,0.0,28,0.00,,,0.00,Wunderground v.1.15,2013-02-01 18:13:00,
2013-02-01 11:19:00,53.0,19.9,30.43,East,92,0.0,0.0,27,0.00,,,0.00,Wunderground v.1.15,2013-02-01 18:19:00,
2013-02-01 11:24:00,53.8,20.6,30.43,East,92,0.0,0.0,27,0.00,,,0.00,Wunderground v.1.15,2013-02-01 18:24:00,
2013-02-01 11:30:00,54.4,20.2,30.42,East,96,0.0,0.0,26,0.00,,,0.00,Wunderground v.1.15,2013-02-01 18:30:00,
2013-02-01 11:36:00,54.7,20.4,30.42,East,90,0.0,0.0,26,0.00,,,0.00,Wunderground v.1.15,2013-02-01 18:36:00,
2013-02-01 11:41:00,55.1,20.8,30.42,East,90,0.0,0.0,26,0.00,,,0.00,Wunderground v.1.15,2013-02-01 18:41:00,
2013-02-01 11:47:00,55.6,21.2,30.42,East,89,0.0,1.0,26,0.00,,,0.00,Wunderground v.1.15,2013-02-01 18:47:00,
2013-02-01 11:52:00,56.0,21.6,30.41,East,89,0.0,0.0,26,0.00,,,0.00,Wunderground v.1.15,2013-02-01 18:52:00,
2013-02-01 11:58:00,56.8,21.3,30.41,East,89,0.0,0.0,25,0.00,,,0.00,Wunderground v.1.15,2013-02-01 18:58:00,
2013-02-01 12:04:00,57.6,21.0,30.40,East,89,0.0,0.0,24,0.00,,,0.00,Wunderground v.1.15,2013-02-01 19:04:00,
2013-02-01 12:09:00,57.9,20.3,30.40,WSW,254,0.0,0.0,23,0.00,,,0.00,Wunderground v.1.15,2013-02-01 19:09:00,
2013-02-01 12:15:00,57.3,20.8,30.39,WSW,254,0.0,0.0,24,0.00,,,0.00,Wunderground v.1.15,2013-02-01 19:15:00,
2013-02-01 12:21:00,57.5,19.9,30.39,WSW,254,0.0,0.0,23,0.00,,,0.00,Wunderground v.1.15,2013-02-01 19:21:00,
2013-02-01 12:27:00,58.0,19.3,30.39,West,267,1.0,2.0,22,0.00,,,0.00,Wunderground v.1.15,2013-02-01 19:27:00,
2013-02-01 12:32:00,57.9,19.2,30.39,West,267,1.0,1.0,22,0.00,,,0.00,Wunderground v.1.15,2013-02-01 19:32:00,
2013-02-01 12:38:00,58.1,20.4,30.38,West,267,0.0,1.0,23,0.00,,,0.00,Wunderground v.1.15,2013-02-01 19:38:00,
2013-02-01 12:44:00,58.6,19.8,30.37,West,271,1.0,5.0,22,0.00,,,0.00,Wunderground v.1.15,2013-02-01 19:44:00,
2013-02-01 12:49:00,58.3,19.6,30.36,WSW,248,2.0,6.0,22,0.00,,,0.00,Wunderground v.1.15,2013-02-01 19:49:00,
2013-02-01 12:55:00,58.4,19.7,30.36,SW,232,2.0,3.0,22,0.00,,,0.00,Wunderground v.1.15,2013-02-01 19:55:00,
2013-02-01 13:01:00,59.1,20.2,30.36,NW,304,1.0,2.0,22,0.00,,,0.00,Wunderground v.1.15,2013-02-01 20:01:00,
2013-02-01 13:07:00,59.6,19.6,30.36,NW,307,1.0,4.0,21,0.00,,,0.00,Wunderground v.1.15,2013-02-01 20:07:00,
2013-02-01 13:12:00,59.6,19.6,30.36,West,273,2.0,5.0,21,0.00,,,0.00,Wunderground v.1.15,2013-02-01 20:12:00,
2013-02-01 13:18:00,59.7,19.6,30.35,West,273,1.0,5.0,21,0.00,,,0.00,Wunderground v.1.15,2013-02-01 20:18:00,
2013-02-01 13:24:00,60.0,19.9,30.35,NE,49,0.0,1.0,21,0.00,,,0.00,Wunderground v.1.15,2013-02-01 20:24:00,
2013-02-01 13:30:00,60.4,20.2,30.35,SSW,198,0.0,0.0,21,0.00,,,0.00,Wunderground v.1.15,2013-02-01 20:30:00,
2013-02-01 13:35:00,60.7,20.5,30.35,South,180,0.0,0.0,21,0.00,,,0.00,Wunderground v.1.15,2013-02-01 20:35:00,
2013-02-01 13:41:00,60.7,19.3,30.34,West,266,2.0,5.0,20,0.00,,,0.00,Wunderground v.1.15,2013-02-01 20:41:00,
2013-02-01 13:47:00,61.1,19.7,30.34,WNW,296,3.0,5.0,20,0.00,,,0.00,Wunderground v.1.15,2013-02-01 20:47:00,
2013-02-01 13:53:00,61.1,19.7,30.34,WSW,257,2.0,6.0,20,0.00,,,0.00,Wunderground v.1.15,2013-02-01 20:53:00,
2013-02-01 13:58:00,61.0,19.6,30.34,West,281,2.0,6.0,20,0.00,,,0.00,Wunderground v.1.15,2013-02-01 20:58:00,
2013-02-01 14:03:00,61.1,18.5,30.34,South,178,1.0,2.0,19,0.00,,,0.00,Wunderground v.1.15,2013-02-01 21:03:00,
2013-02-01 14:09:00,61.4,18.7,30.33,WSW,247,1.0,2.0,19,0.00,,,0.00,Wunderground v.1.15,2013-02-01 21:09:00,
2013-02-01 14:15:00,61.6,18.9,30.34,SW,219,2.0,7.0,19,0.00,,,0.00,Wunderground v.1.15,2013-02-01 21:15:00,
2013-02-01 14:20:00,61.5,18.8,30.33,West,269,2.0,2.0,19,0.00,,,0.00,Wunderground v.1.15,2013-02-01 21:20:00,
2013-02-01 14:26:00,61.8,19.0,30.33,NE,38,1.0,2.0,19,0.00,,,0.00,Wunderground v.1.15,2013-02-01 21:26:00,
2013-02-01 14:32:00,62.4,19.5,30.32,WSW,251,1.0,3.0,19,0.00,,,0.00,Wunderground v.1.15,2013-02-01 21:32:00,
2013-02-01 14:38:00,62.5,18.4,30.33,SW,227,2.0,6.0,18,0.00,,,0.00,Wunderground v.1.15,2013-02-01 21:38:00,
2013-02-01 14:44:00,62.7,19.8,30.33,WNW,298,2.0,2.0,19,0.00,,,0.00,Wunderground v.1.15,2013-02-01 21:44:00,
2013-02-01 14:50:00,62.7,19.8,30.33,WSW,238,3.0,7.0,19,0.00,,,0.00,Wunderground v.1.15,2013-02-01 21:50:00,
2013-02-01 14:56:00,62.4,18.3,30.33,WSW,253,3.0,7.0,18,0.00,,,0.00,Wunderground v.1.15,2013-02-01 21:56:00,
2013-02-01 15:01:00,62.6,18.4,30.32,WSW,253,1.0,2.0,18,0.00,,,0.00,Wunderground v.1.15,2013-02-01 22:01:00,
2013-02-01 15:06:00,63.1,18.9,30.32,North,360,0.0,2.0,18,0.00,,,0.00,Wunderground v.1.15,2013-02-01 22:06:00,
2013-02-01 15:11:00,63.3,19.0,30.31,North,355,0.0,0.0,18,0.00,,,0.00,Wunderground v.1.15,2013-02-01 22:11:00,
2013-02-01 15:17:00,63.6,19.3,30.31,North,360,0.0,0.0,18,0.00,,,0.00,Wunderground v.1.15,2013-02-01 22:17:00,
2013-02-01 15:23:00,63.4,19.1,30.31,WNW,288,0.0,2.0,18,0.00,,,0.00,Wunderground v.1.15,2013-02-01 22:23:00,
2013-02-01 15:28:00,63.5,19.2,30.31,WNW,288,0.0,2.0,18,0.00,,,0.00,Wunderground v.1.15,2013-02-01 22:28:00,
2013-02-01 15:34:00,63.8,18.1,30.31,WNW,296,0.0,0.0,17,0.00,,,0.00,Wunderground v.1.15,2013-02-01 22:34:00,
2013-02-01 15:40:00,63.9,18.2,30.31,West,281,0.0,0.0,17,0.00,,,0.00,Wunderground v.1.15,2013-02-01 22:40:00,
2013-02-01 15:46:00,63.7,18.0,30.31,WNW,300,1.0,1.0,17,0.00,,,0.00,Wunderground v.1.15,2013-02-01 22:46:00,
2013-02-01 15:52:00,63.7,18.0,30.31,NW,306,0.0,0.0,17,0.00,,,0.00,Wunderground v.1.15,2013-02-01 22:52:00,
2013-02-01 15:57:00,63.8,18.1,30.30,North,355,0.0,0.0,17,0.00,,,0.00,Wunderground v.1.15,2013-02-01 22:57:00,
2013-02-01 16:03:00,63.7,18.0,30.31,ENE,74,0.0,1.0,17,0.00,,,0.00,Wunderground v.1.15,2013-02-01 23:03:00,
2013-02-01 16:09:00,63.6,17.9,30.30,ENE,74,0.0,1.0,17,0.00,,,0.00,Wunderground v.1.15,2013-02-01 23:09:00,
2013-02-01 16:15:00,64.5,18.7,30.31,ENE,74,0.0,0.0,17,0.00,,,0.00,Wunderground v.1.15,2013-02-01 23:15:00,
2013-02-01 16:20:00,65.2,19.2,30.31,ENE,74,0.0,0.0,17,0.00,,,0.00,Wunderground v.1.15,2013-02-01 23:20:00,
2013-02-01 16:26:00,65.0,19.1,30.31,ENE,74,0.0,0.0,17,0.00,,,0.00,Wunderground v.1.15,2013-02-01 23:26:00,
2013-02-01 16:32:00,64.8,18.9,30.31,ENE,74,0.0,0.0,17,0.00,,,0.00,Wunderground v.1.15,2013-02-01 23:32:00,
2013-02-01 16:38:00,64.7,18.8,30.31,ENE,74,0.0,0.0,17,0.00,,,0.00,Wunderground v.1.15,2013-02-01 23:38:00,
2013-02-01 16:43:00,64.5,18.7,30.31,ENE,74,0.0,0.0,17,0.00,,,0.00,Wunderground v.1.15,2013-02-01 23:43:00,
2013-02-01 16:49:00,64.2,18.4,30.31,ENE,74,0.0,0.0,17,0.00,,,0.00,Wunderground v.1.15,2013-02-01 23:49:00,
2013-02-01 16:55:00,64.0,18.3,30.31,ENE,74,0.0,0.0,17,0.00,,,0.00,Wunderground v.1.15,2013-02-01 23:55:00,
2013-02-01 17:01:00,63.8,18.1,30.31,ENE,74,0.0,0.0,17,0.00,,,0.00,Wunderground v.1.15,2013-02-02 00:01:00,
2013-02-01 17:07:00,63.6,17.9,30.31,ENE,74,0.0,0.0,17,0.00,,,0.00,Wunderground v.1.15,2013-02-02 00:07:00,
2013-02-01 17:13:00,63.3,17.7,30.31,ENE,74,0.0,0.0,17,0.00,,,0.00,Wunderground v.1.15,2013-02-02 00:13:00,
2013-02-01 17:19:00,63.2,18.9,30.31,ENE,74,0.0,0.0,18,0.00,,,0.00,Wunderground v.1.15,2013-02-02 00:19:00,
2013-02-01 17:25:00,63.0,18.8,30.31,ENE,74,0.0,0.0,18,0.00,,,0.00,Wunderground v.1.15,2013-02-02 00:25:00,
2013-02-01 17:31:00,62.6,18.4,30.31,ENE,74,0.0,0.0,18,0.00,,,0.00,Wunderground v.1.15,2013-02-02 00:31:00,
2013-02-01 17:36:00,62.1,19.3,30.31,ENE,74,0.0,0.0,19,0.00,,,0.00,Wunderground v.1.15,2013-02-02 00:36:00,
2013-02-01 17:42:00,61.3,18.6,30.31,ENE,74,0.0,0.0,19,0.00,,,0.00,Wunderground v.1.15,2013-02-02 00:42:00,
2013-02-01 17:48:00,60.6,18.1,30.31,ENE,74,0.0,0.0,19,0.00,,,0.00,Wunderground v.1.15,2013-02-02 00:48:00,
2013-02-01 17:54:00,59.8,18.6,30.31,ENE,74,0.0,0.0,20,0.00,,,0.00,Wunderground v.1.15,2013-02-02 00:54:00,
2013-02-01 17:59:00,59.0,19.1,30.31,ENE,74,0.0,0.0,21,0.00,,,0.00,Wunderground v.1.15,2013-02-02 00:59:00,
2013-02-01 18:05:00,58.2,18.4,30.31,ENE,74,0.0,0.0,21,0.00,,,0.00,Wunderground v.1.15,2013-02-02 01:05:00,
2013-02-01 18:11:00,57.3,18.7,30.31,ENE,74,0.0,0.0,22,0.00,,,0.00,Wunderground v.1.15,2013-02-02 01:11:00,
2013-02-01 18:16:00,56.6,18.1,30.32,ENE,74,0.0,0.0,22,0.00,,,0.00,Wunderground v.1.15,2013-02-02 01:16:00,
2013-02-01 18:22:00,55.8,19.5,30.33,ENE,74,0.0,0.0,24,0.00,,,0.00,Wunderground v.1.15,2013-02-02 01:22:00,
2013-02-01 18:28:00,54.9,18.7,30.33,ENE,74,0.0,0.0,24,0.00,,,0.00,Wunderground v.1.15,2013-02-02 01:28:00,
2013-02-01 18:34:00,54.1,18.1,30.33,ENE,74,0.0,0.0,24,0.00,,,0.00,Wunderground v.1.15,2013-02-02 01:34:00,
2013-02-01 18:39:00,53.5,17.5,30.33,ENE,74,0.0,0.0,24,0.00,,,0.00,Wunderground v.1.15,2013-02-02 01:39:00,
2013-02-01 18:45:00,53.1,17.2,30.33,ENE,74,0.0,0.0,24,0.00,,,0.00,Wunderground v.1.15,2013-02-02 01:45:00,
2013-02-01 18:51:00,52.4,17.6,30.33,ENE,74,0.0,0.0,25,0.00,,,0.00,Wunderground v.1.15,2013-02-02 01:51:00,
2013-02-01 18:57:00,50.9,15.3,30.34,ENE,74,0.0,0.0,24,0.00,,,0.00,Wunderground v.1.15,2013-02-02 01:57:00,
2013-02-01 19:02:00,49.7,15.2,30.34,ENE,74,0.0,0.0,25,0.00,,,0.00,Wunderground v.1.15,2013-02-02 02:02:00,
2013-02-01 19:08:00,49.1,14.7,30.34,ENE,74,0.0,0.0,25,0.00,,,0.00,Wunderground v.1.15,2013-02-02 02:08:00,
2013-02-01 19:14:00,48.8,15.4,30.34,ENE,74,0.0,0.0,26,0.00,,,0.00,Wunderground v.1.15,2013-02-02 02:14:00,
2013-02-01 19:19:00,48.6,15.2,30.34,ENE,74,0.0,0.0,26,0.00,,,0.00,Wunderground v.1.15,2013-02-02 02:19:00,
2013-02-01 19:25:00,48.2,16.6,30.35,ENE,74,0.0,0.0,28,0.00,,,0.00,Wunderground v.1.15,2013-02-02 02:25:00,
2013-02-01 19:31:00,47.3,14.1,30.35,ENE,74,0.0,0.0,26,0.00,,,0.00,Wunderground v.1.15,2013-02-02 02:31:00,
2013-02-01 19:37:00,46.2,14.0,30.35,ENE,74,0.0,0.0,27,0.00,,,0.00,Wunderground v.1.15,2013-02-02 02:37:00,
2013-02-01 19:42:00,45.7,14.4,30.35,ENE,74,0.0,0.0,28,0.00,,,0.00,Wunderground v.1.15,2013-02-02 02:42:00,
2013-02-01 19:47:00,45.3,14.9,30.35,ENE,74,0.0,0.0,29,0.00,,,0.00,Wunderground v.1.15,2013-02-02 02:47:00,
2013-02-01 19:53:00,45.0,15.4,30.36,ENE,74,0.0,0.0,30,0.00,,,0.00,Wunderground v.1.15,2013-02-02 02:53:00,
2013-02-01 19:59:00,44.7,15.1,30.36,ENE,74,0.0,0.0,30,0.00,,,0.00,Wunderground v.1.15,2013-02-02 02:59:00,
2013-02-01 20:05:00,44.4,16.3,30.37,ENE,74,0.0,0.0,32,0.00,,,0.00,Wunderground v.1.15,2013-02-02 03:05:00,
2013-02-01 20:10:00,44.2,16.2,30.37,ENE,74,0.0,0.0,32,0.00,,,0.00,Wunderground v.1.15,2013-02-02 03:10:00,
2013-02-01 20:16:00,43.8,15.8,30.37,ENE,74,0.0,0.0,32,0.00,,,0.00,Wunderground v.1.15,2013-02-02 03:16:00,
2013-02-01 20:22:00,43.4,15.5,30.37,ENE,74,0.0,0.0,32,0.00,,,0.00,Wunderground v.1.15,2013-02-02 03:22:00,
2013-02-01 20:28:00,43.0,16.5,30.37,ENE,74,0.0,0.0,34,0.00,,,0.00,Wunderground v.1.15,2013-02-02 03:28:00,
2013-02-01 20:34:00,42.4,13.9,30.37,ENE,74,0.0,0.0,31,0.00,,,0.00,Wunderground v.1.15,2013-02-02 03:34:00,
2013-02-01 20:39:00,41.8,13.3,30.37,ENE,74,0.0,0.0,31,0.00,,,0.00,Wunderground v.1.15,2013-02-02 03:39:00,
2013-02-01 20:45:00,41.3,13.6,30.37,ENE,74,0.0,0.0,32,0.00,,,0.00,Wunderground v.1.15,2013-02-02 03:45:00,
2013-02-01 20:51:00,40.7,14.5,30.37,ENE,74,0.0,0.0,34,0.00,,,0.00,Wunderground v.1.15,2013-02-02 03:51:00,
2013-02-01 20:57:00,40.5,15.0,30.38,ENE,74,0.0,0.0,35,0.00,,,0.00,Wunderground v.1.15,2013-02-02 03:57:00,
2013-02-01 21:03:00,40.8,14.6,30.38,ENE,74,0.0,0.0,34,0.00,,,0.00,Wunderground v.1.15,2013-02-02 04:03:00,
2013-02-01 21:08:00,40.9,15.3,30.38,ENE,74,0.0,0.0,35,0.00,,,0.00,Wunderground v.1.15,2013-02-02 04:08:00,
2013-02-01 21:14:00,40.5,14.3,30.38,ENE,74,0.0,0.0,34,0.00,,,0.00,Wunderground v.1.15,2013-02-02 04:14:00,
2013-02-01 21:20:00,40.1,14.6,30.38,ENE,74,0.0,0.0,35,0.00,,,0.00,Wunderground v.1.15,2013-02-02 04:20:00,
2013-02-01 21:26:00,39.7,14.9,30.38,ENE,74,0.0,0.0,36,0.00,,,0.00,Wunderground v.1.15,2013-02-02 04:26:00,
2013-02-01 21:31:00,39.5,14.7,30.38,ENE,74,0.0,0.0,36,0.00,,,0.00,Wunderground v.1.15,2013-02-02 04:31:00,
2013-02-01 21:37:00,39.2,15.1,30.38,ENE,74,0.0,0.0,37,0.00,,,0.00,Wunderground v.1.15,2013-02-02 04:37:00,
2013-02-01 21:43:00,38.9,14.2,30.38,ENE,74,0.0,0.0,36,0.00,,,0.00,Wunderground v.1.15,2013-02-02 04:43:00,
2013-02-01 21:49:00,38.5,15.1,30.39,ENE,74,0.0,0.0,38,0.00,,,0.00,Wunderground v.1.15,2013-02-02 04:49:00,
2013-02-01 21:55:00,38.1,15.9,30.39,ENE,74,0.0,0.0,40,0.00,,,0.00,Wunderground v.1.15,2013-02-02 04:55:00,
2013-02-01 22:00:00,37.7,14.9,30.39,ENE,74,0.0,0.0,39,0.00,,,0.00,Wunderground v.1.15,2013-02-02 05:00:00,
2013-02-01 22:01:00,37.7,14.9,30.39,ENE,74,0.0,0.0,39,0.00,,,0.00,Wunderground v.1.15,2013-02-02 05:01:00,
2013-02-01 22:03:00,37.5,14.8,30.38,ENE,74,0.0,0.0,39,0.00,,,0.00,Wunderground v.1.15,2013-02-02 05:03:00,
2013-02-01 22:05:00,37.4,14.7,30.39,ENE,74,0.0,0.0,39,0.00,,,0.00,Wunderground v.1.15,2013-02-02 05:05:00,
2013-02-01 22:10:00,37.3,15.2,30.38,ENE,74,0.0,0.0,40,0.00,,,0.00,Wunderground v.1.15,2013-02-02 05:10:00,
2013-02-01 22:16:00,36.6,12.7,30.39,ENE,74,0.0,0.0,37,0.00,,,0.00,Wunderground v.1.15,2013-02-02 05:16:00,
2013-02-01 22:22:00,35.9,12.7,30.39,ENE,74,0.0,0.0,38,0.00,,,0.00,Wunderground v.1.15,2013-02-02 05:22:00,
2013-02-01 22:28:00,35.7,13.1,30.39,ENE,74,0.0,0.0,39,0.00,,,0.00,Wunderground v.1.15,2013-02-02 05:28:00,
2013-02-01 22:33:00,35.6,13.0,30.39,ENE,74,0.0,0.0,39,0.00,,,0.00,Wunderground v.1.15,2013-02-02 05:33:00,
2013-02-01 22:39:00,35.5,13.0,30.39,ENE,74,0.0,0.0,39,0.00,,,0.00,Wunderground v.1.15,2013-02-02 05:39:00,
2013-02-01 22:45:00,35.3,12.8,30.40,ENE,74,0.0,0.0,39,0.00,,,0.00,Wunderground v.1.15,2013-02-02 05:45:00,
2013-02-01 22:50:00,35.1,13.2,30.40,ENE,74,0.0,0.0,40,0.00,,,0.00,Wunderground v.1.15,2013-02-02 05:50:00,
2013-02-01 22:56:00,34.9,13.0,30.40,ENE,74,0.0,0.0,40,0.00,,,0.00,Wunderground v.1.15,2013-02-02 05:56:00,
2013-02-01 23:02:00,34.6,13.8,30.40,ENE,74,0.0,0.0,42,0.00,,,0.00,Wunderground v.1.15,2013-02-02 06:02:00,
2013-02-01 23:08:00,34.2,12.9,30.40,ENE,74,0.0,0.0,41,0.00,,,0.00,Wunderground v.1.15,2013-02-02 06:08:00,
2013-02-01 23:14:00,34.0,12.7,30.40,ENE,74,0.0,0.0,41,0.00,,,0.00,Wunderground v.1.15,2013-02-02 06:14:00,
2013-02-01 23:19:00,33.8,13.1,30.40,ENE,74,0.0,0.0,42,0.00,,,0.00,Wunderground v.1.15,2013-02-02 06:19:00,
2013-02-01 23:25:00,33.7,13.0,30.40,ENE,74,0.0,0.0,42,0.00,,,0.00,Wunderground v.1.15,2013-02-02 06:25:00,
2013-02-01 23:31:00,33.5,13.4,30.40,ENE,74,0.0,0.0,43,0.00,,,0.00,Wunderground v.1.15,2013-02-02 06:31:00,
2013-02-01 23:36:00,33.3,13.2,30.41,ENE,74,0.0,0.0,43,0.00,,,0.00,Wunderground v.1.15,2013-02-02 06:36:00,
2013-02-01 23:42:00,33.0,12.9,30.41,ENE,74,0.0,0.0,43,0.00,,,0.00,Wunderground v.1.15,2013-02-02 06:42:00,
2013-02-01 23:48:00,32.8,13.2,30.41,ENE,74,0.0,0.0,44,0.00,,,0.00,Wunderground v.1.15,2013-02-02 06:48:00,
2013-02-01 23:54:00,32.8,13.8,30.41,ENE,74,0.0,0.0,45,0.00,,,0.00,Wunderground v.1.15,2013-02-02 06:54:00,
2013-02-01 23:59:00,32.7,13.7,30.41,ENE,74,0.0,0.0,45,0.00,,,0.00,Wunderground v.1.15,2013-02-02 06:59:00,